Check out our new PWSWeather beta!
PWSweather.com
Personal Weather Stations
Station Observations
WIDELFT
DelftNL

DelftNL

Lat: 51.9795322, Lon: 4.34168625

Elevation: -6

Station Type: Davis Vantage Pro2 Plus

Latest ConditionsUpdated 1:30:01 PM GMT+01:01 Tuesday, Feb 18, 2020
Currently Today's Max Today's Min Today's Average
Temperature 48.5°F9.2°C 48.5°F9.2°C 44.5°F6.9°C 46.0°F7.8°C
Dew Point 41.3°F5.2°C 42.9°F6.1°C 36.7°F2.6°C 39.7°F4.3°C
Winds 11.5 mph WSW18.5 kmh WSW 17.3 mph -27.8 kmh - - 11.5 mph 18.5 kmh
Wind Gusts 19.6 mph31.5 kmh 25.3 mph40.7 kmh - -
Humidity 76% 86% 72% 79%
Pressure 30.06 in1017.9 mb 30.08 in1018.6 mb 29.92 in1013.2 mb -
Precipitation - 0.01 in0.3 mm - -
Hour Temp Dew Point Humidity Winds Wind Gusts Pressure Precip Precip Rate Daily Precip Total
01:30 PM 48.5°F9.2°C 41.3°F5.2°C 76% 11.5 mph WSW18.5 kmh WSW 19.6 mph31.5 kmh 30.06 in1017.9 mb - 0.00 in0.0 mm 0.01 in0.3 mm
01:20 PM 48.4°F9.1°C 41.2°F5.1°C 76% 17.3 mph WSW27.8 kmh WSW 19.6 mph31.5 kmh 30.06 in1017.9 mb - 0.00 in0.0 mm 0.01 in0.3 mm
01:10 PM 48.0°F8.9°C 41.1°F5.1°C 77% 13.8 mph WSW22.2 kmh WSW 19.6 mph31.5 kmh 30.06 in1017.9 mb - 0.00 in0.0 mm 0.01 in0.3 mm
01:00 PM 47.5°F8.6°C 40.7°F4.8°C 77% 16.1 mph WSW25.9 kmh WSW 18.4 mph29.6 kmh 30.07 in1018.3 mb - 0.00 in0.0 mm 0.01 in0.3 mm
12:50 PM 47.4°F8.6°C 40.9°F4.9°C 78% 13.8 mph WSW22.2 kmh WSW 19.6 mph31.5 kmh 30.07 in1018.3 mb - 0.00 in0.0 mm 0.01 in0.3 mm
12:40 PM 47.3°F8.5°C 40.5°F4.7°C 77% 11.5 mph WSW18.5 kmh WSW 17.3 mph27.8 kmh 30.07 in1018.3 mb - 0.00 in0.0 mm 0.01 in0.3 mm
12:30 PM 47.3°F8.5°C 40.7°F4.8°C 78% 10.4 mph WSW16.7 kmh WSW 15.0 mph24.1 kmh 30.07 in1018.3 mb - 0.00 in0.0 mm 0.01 in0.3 mm
12:20 PM 47.3°F8.5°C 40.1°F4.5°C 76% 13.8 mph WSW22.2 kmh WSW 25.3 mph40.7 kmh 30.07 in1018.3 mb - 0.00 in0.0 mm 0.01 in0.3 mm
12:10 PM 47.7°F8.7°C 40.8°F4.9°C 77% 16.1 mph WSW25.9 kmh WSW 24.2 mph38.9 kmh 30.07 in1018.3 mb - 0.00 in0.0 mm 0.01 in0.3 mm
12:00 PM 47.5°F8.6°C 41.3°F5.2°C 79% 15.0 mph WSW24.1 kmh WSW 19.6 mph31.5 kmh 30.07 in1018.3 mb - 0.00 in0.0 mm 0.01 in0.3 mm
11:50 AM 46.9°F8.3°C 40.8°F4.9°C 79% 11.5 mph WSW18.5 kmh WSW 15.0 mph24.1 kmh 30.07 in1018.3 mb - 0.00 in0.0 mm 0.01 in0.3 mm
11:40 AM 46.6°F8.1°C 40.1°F4.5°C 78% 12.7 mph WSW20.4 kmh WSW 18.4 mph29.6 kmh 30.07 in1018.3 mb - 0.00 in0.0 mm 0.01 in0.3 mm
11:30 AM 46.6°F8.1°C 40.4°F4.7°C 79% 12.7 mph WSW20.4 kmh WSW 17.3 mph27.8 kmh 30.08 in1018.6 mb - 0.00 in0.0 mm 0.01 in0.3 mm
11:20 AM 46.4°F8.0°C 40.6°F4.8°C 80% 11.5 mph WSW18.5 kmh WSW 16.1 mph25.9 kmh 30.07 in1018.3 mb - 0.00 in0.0 mm 0.01 in0.3 mm
11:10 AM 46.4°F8.0°C 40.2°F4.6°C 79% 12.7 mph SW20.4 kmh SW 13.8 mph22.2 kmh 30.07 in1018.3 mb - 0.00 in0.0 mm 0.01 in0.3 mm
11:00 AM 46.4°F8.0°C 40.6°F4.8°C 80% 15.0 mph WSW24.1 kmh WSW 24.2 mph38.9 kmh 30.07 in1018.3 mb - 0.00 in0.0 mm 0.01 in0.3 mm
10:50 AM 46.3°F7.9°C 40.1°F4.5°C 79% 9.2 mph WSW14.8 kmh WSW 15.0 mph24.1 kmh 30.07 in1018.3 mb - 0.00 in0.0 mm 0.01 in0.3 mm
10:40 AM 46.2°F7.9°C 40.1°F4.5°C 79% 10.4 mph WSW16.7 kmh WSW 15.0 mph24.1 kmh 30.07 in1018.3 mb - 0.00 in0.0 mm 0.01 in0.3 mm
10:30 AM 46.0°F7.8°C 40.2°F4.6°C 80% 9.2 mph WSW14.8 kmh WSW 16.1 mph25.9 kmh 30.07 in1018.3 mb - 0.00 in0.0 mm 0.01 in0.3 mm
10:20 AM 45.9°F7.7°C 39.8°F4.3°C 79% 9.2 mph WSW14.8 kmh WSW 12.7 mph20.4 kmh 30.07 in1018.3 mb - 0.00 in0.0 mm 0.01 in0.3 mm
10:10 AM 45.7°F7.6°C 39.5°F4.2°C 79% 11.5 mph WSW18.5 kmh WSW 15.0 mph24.1 kmh 30.07 in1018.3 mb - 0.00 in0.0 mm 0.01 in0.3 mm
10:00 AM 45.4°F7.4°C 39.3°F4.1°C 79% 10.4 mph WSW16.7 kmh WSW 16.1 mph25.9 kmh 30.07 in1018.3 mb - 0.00 in0.0 mm 0.01 in0.3 mm
09:50 AM 45.5°F7.5°C 39.0°F3.9°C 78% 12.7 mph WSW20.4 kmh WSW 21.9 mph35.2 kmh 30.07 in1018.3 mb - 0.00 in0.0 mm 0.01 in0.3 mm
09:40 AM 45.6°F7.6°C 39.4°F4.1°C 79% 9.2 mph WSW14.8 kmh WSW 15.0 mph24.1 kmh 30.06 in1017.9 mb - 0.00 in0.0 mm 0.01 in0.3 mm
09:30 AM 45.4°F7.4°C 40.0°F4.4°C 81% 11.5 mph WSW18.5 kmh WSW 17.3 mph27.8 kmh 30.07 in1018.3 mb - 0.00 in0.0 mm 0.01 in0.3 mm
09:20 AM 45.1°F7.3°C 40.0°F4.4°C 82% 9.2 mph SW14.8 kmh SW 11.5 mph18.5 kmh 30.07 in1018.3 mb - 0.00 in0.0 mm 0.01 in0.3 mm
09:10 AM 44.9°F7.2°C 39.7°F4.3°C 82% 12.7 mph WSW20.4 kmh WSW 15.0 mph24.1 kmh 30.06 in1017.9 mb - 0.00 in0.0 mm 0.01 in0.3 mm
09:00 AM 44.8°F7.1°C 39.3°F4.1°C 81% 8.1 mph WSW13.0 kmh WSW 11.5 mph18.5 kmh 30.06 in1017.9 mb - 0.00 in0.0 mm 0.01 in0.3 mm
08:50 AM 44.7°F7.1°C 39.2°F4.0°C 81% 8.1 mph WSW13.0 kmh WSW 12.7 mph20.4 kmh 30.06 in1017.9 mb - 0.00 in0.0 mm 0.01 in0.3 mm
08:40 AM 44.6°F7.0°C 39.1°F3.9°C 81% 10.4 mph WSW16.7 kmh WSW 17.3 mph27.8 kmh 30.06 in1017.9 mb - 0.00 in0.0 mm 0.01 in0.3 mm
08:30 AM 44.5°F6.9°C 38.7°F3.7°C 80% 9.2 mph WSW14.8 kmh WSW 12.7 mph20.4 kmh 30.06 in1017.9 mb - 0.00 in0.0 mm 0.01 in0.3 mm
08:20 AM 44.6°F7.0°C 38.5°F3.6°C 79% 6.9 mph WSW11.1 kmh WSW 11.5 mph18.5 kmh 30.06 in1017.9 mb - 0.00 in0.0 mm 0.01 in0.3 mm
08:10 AM 44.8°F7.1°C 38.4°F3.6°C 78% 8.1 mph WSW13.0 kmh WSW 12.7 mph20.4 kmh 30.05 in1017.6 mb - 0.00 in0.0 mm 0.01 in0.3 mm
08:00 AM 44.8°F7.1°C 38.4°F3.6°C 78% 12.7 mph WSW20.4 kmh WSW 17.3 mph27.8 kmh 30.05 in1017.6 mb - 0.00 in0.0 mm 0.01 in0.3 mm
07:50 AM 45.0°F7.2°C 38.6°F3.7°C 78% 10.4 mph WSW16.7 kmh WSW 18.4 mph29.6 kmh 30.04 in1017.3 mb - 0.00 in0.0 mm 0.01 in0.3 mm
07:40 AM 45.0°F7.2°C 38.9°F3.8°C 79% 11.5 mph WSW18.5 kmh WSW 16.1 mph25.9 kmh 30.04 in1017.3 mb - 0.00 in0.0 mm 0.01 in0.3 mm
07:30 AM 45.0°F7.2°C 38.9°F3.8°C 79% 11.5 mph WSW18.5 kmh WSW 18.4 mph29.6 kmh 30.04 in1017.3 mb - 0.00 in0.0 mm 0.01 in0.3 mm
07:20 AM 45.0°F7.2°C 38.9°F3.8°C 79% 10.4 mph WSW16.7 kmh WSW 16.1 mph25.9 kmh 30.04 in1017.3 mb - 0.00 in0.0 mm 0.01 in0.3 mm
07:10 AM 45.0°F7.2°C 38.6°F3.7°C 78% 10.4 mph WSW16.7 kmh WSW 16.1 mph25.9 kmh 30.04 in1017.3 mb - 0.00 in0.0 mm 0.01 in0.3 mm
07:00 AM 45.2°F7.3°C 38.7°F3.7°C 78% 9.2 mph WSW14.8 kmh WSW 10.4 mph16.7 kmh 30.03 in1016.9 mb - 0.00 in0.0 mm 0.01 in0.3 mm
06:50 AM 45.3°F7.4°C 38.5°F3.6°C 77% 11.5 mph WSW18.5 kmh WSW 19.6 mph31.5 kmh 30.03 in1016.9 mb - 0.00 in0.0 mm 0.01 in0.3 mm
06:40 AM 45.3°F7.4°C 37.8°F3.2°C 75% 11.5 mph WSW18.5 kmh WSW 19.6 mph31.5 kmh 30.03 in1016.9 mb - 0.00 in0.0 mm 0.01 in0.3 mm
06:30 AM 45.1°F7.3°C 38.0°F3.3°C 76% 11.5 mph W18.5 kmh W 19.6 mph31.5 kmh 30.03 in1016.9 mb - 0.00 in0.0 mm 0.01 in0.3 mm
06:20 AM 45.3°F7.4°C 38.5°F3.6°C 77% 10.4 mph WSW16.7 kmh WSW 17.3 mph27.8 kmh 30.03 in1016.9 mb - 0.00 in0.0 mm 0.01 in0.3 mm
06:10 AM 45.4°F7.4°C 37.9°F3.3°C 75% 9.2 mph W14.8 kmh W 15.0 mph24.1 kmh 30.03 in1016.9 mb - 0.00 in0.0 mm 0.01 in0.3 mm
06:00 AM 45.3°F7.4°C 37.1°F2.8°C 73% 10.4 mph WSW16.7 kmh WSW 13.8 mph22.2 kmh 30.03 in1016.9 mb - 0.00 in0.0 mm 0.01 in0.3 mm
05:50 AM 45.2°F7.3°C 36.7°F2.6°C 72% 12.7 mph WSW20.4 kmh WSW 19.6 mph31.5 kmh 30.02 in1016.6 mb - 0.00 in0.0 mm 0.01 in0.3 mm
05:40 AM 45.2°F7.3°C 37.4°F3.0°C 74% 10.4 mph WSW16.7 kmh WSW 17.3 mph27.8 kmh 30.02 in1016.6 mb - 0.00 in0.0 mm 0.01 in0.3 mm
05:30 AM 45.3°F7.4°C 37.5°F3.1°C 74% 9.2 mph WSW14.8 kmh WSW 11.5 mph18.5 kmh 30.02 in1016.6 mb - 0.00 in0.0 mm 0.01 in0.3 mm
05:20 AM 45.3°F7.4°C 37.5°F3.1°C 74% 9.2 mph W14.8 kmh W 19.6 mph31.5 kmh 30.02 in1016.6 mb - 0.00 in0.0 mm 0.01 in0.3 mm
05:10 AM 45.1°F7.3°C 38.0°F3.3°C 76% 12.7 mph WSW20.4 kmh WSW 18.4 mph29.6 kmh 30.02 in1016.6 mb - 0.00 in0.0 mm 0.01 in0.3 mm
05:00 AM 45.1°F7.3°C 37.6°F3.1°C 75% 9.2 mph WSW14.8 kmh WSW 11.5 mph18.5 kmh 30.01 in1016.3 mb - 0.00 in0.0 mm 0.01 in0.3 mm
04:50 AM 45.0°F7.2°C 37.6°F3.1°C 75% 9.2 mph WSW14.8 kmh WSW 16.1 mph25.9 kmh 30.01 in1016.3 mb - 0.00 in0.0 mm 0.01 in0.3 mm
04:40 AM 45.2°F7.3°C 38.0°F3.3°C 76% 12.7 mph WSW20.4 kmh WSW 19.6 mph31.5 kmh 30.01 in1016.3 mb - 0.01 in0.3 mm 0.01 in0.3 mm
04:30 AM 45.4°F7.4°C 37.9°F3.3°C 75% 13.8 mph WSW22.2 kmh WSW 19.6 mph31.5 kmh 30.01 in1016.3 mb - 0.01 in0.3 mm 0.01 in0.3 mm
04:20 AM 45.3°F7.4°C 37.5°F3.1°C 74% 15.0 mph W24.1 kmh W 23.0 mph37.0 kmh 30.01 in1016.3 mb - 0.01 in0.3 mm 0.01 in0.3 mm
04:10 AM 45.3°F7.4°C 37.5°F3.1°C 74% 9.2 mph WSW14.8 kmh WSW 18.4 mph29.6 kmh 30.00 in1015.9 mb - 0.01 in0.3 mm 0.01 in0.3 mm
04:00 AM 45.4°F7.4°C 37.6°F3.1°C 74% 11.5 mph W18.5 kmh W 17.3 mph27.8 kmh 30.00 in1015.9 mb - 0.01 in0.3 mm 0.01 in0.3 mm
03:50 AM 45.4°F7.4°C 38.3°F3.5°C 76% 10.4 mph W16.7 kmh W 17.3 mph27.8 kmh 30.00 in1015.9 mb - 0.01 in0.3 mm 0.01 in0.3 mm
03:40 AM 45.6°F7.6°C 39.1°F3.9°C 78% 8.1 mph W13.0 kmh W 11.5 mph18.5 kmh 30.00 in1015.9 mb - 0.00 in0.0 mm 0.00 in0.0 mm
03:30 AM 45.6°F7.6°C 39.5°F4.2°C 79% 11.5 mph W18.5 kmh W 12.7 mph20.4 kmh 30.00 in1015.9 mb - 0.00 in0.0 mm 0.00 in0.0 mm
03:20 AM 45.7°F7.6°C 39.2°F4.0°C 78% 11.5 mph WSW18.5 kmh WSW 16.1 mph25.9 kmh 29.99 in1015.6 mb - 0.00 in0.0 mm 0.00 in0.0 mm
03:10 AM 45.8°F7.7°C 39.3°F4.1°C 78% 12.7 mph WSW20.4 kmh WSW 24.2 mph38.9 kmh 29.99 in1015.6 mb - 0.00 in0.0 mm 0.00 in0.0 mm
03:00 AM 46.2°F7.9°C 40.4°F4.7°C 80% 11.5 mph W18.5 kmh W 24.2 mph38.9 kmh 29.99 in1015.6 mb - 0.00 in0.0 mm 0.00 in0.0 mm
02:50 AM 46.3°F7.9°C 40.5°F4.7°C 80% 13.8 mph W22.2 kmh W 13.8 mph22.2 kmh 29.98 in1015.2 mb - 0.00 in0.0 mm 0.00 in0.0 mm
02:40 AM 46.5°F8.1°C 40.7°F4.8°C 80% 11.5 mph WSW18.5 kmh WSW 13.8 mph22.2 kmh 29.98 in1015.2 mb - 0.00 in0.0 mm 0.00 in0.0 mm
02:30 AM 46.5°F8.1°C 40.7°F4.8°C 80% 11.5 mph W18.5 kmh W 18.4 mph29.6 kmh 29.98 in1015.2 mb - 0.00 in0.0 mm 0.00 in0.0 mm
02:20 AM 46.7°F8.2°C 40.8°F4.9°C 80% 10.4 mph W16.7 kmh W 18.4 mph29.6 kmh 29.98 in1015.2 mb - 0.00 in0.0 mm 0.00 in0.0 mm
02:10 AM 46.7°F8.2°C 40.5°F4.7°C 79% 13.8 mph WSW22.2 kmh WSW 23.0 mph37.0 kmh 29.97 in1014.9 mb - 0.00 in0.0 mm 0.00 in0.0 mm
02:00 AM 46.9°F8.3°C 40.7°F4.8°C 79% 10.4 mph W16.7 kmh W 18.4 mph29.6 kmh 29.97 in1014.9 mb - 0.00 in0.0 mm 0.00 in0.0 mm
01:50 AM 46.9°F8.3°C 41.1°F5.1°C 80% 13.8 mph WSW22.2 kmh WSW 23.0 mph37.0 kmh 29.97 in1014.9 mb - 0.00 in0.0 mm 0.00 in0.0 mm
01:40 AM 47.0°F8.3°C 40.8°F4.9°C 79% 9.2 mph WSW14.8 kmh WSW 16.1 mph25.9 kmh 29.96 in1014.6 mb - 0.00 in0.0 mm 0.00 in0.0 mm
01:30 AM 46.9°F8.3°C 41.1°F5.1°C 80% 9.2 mph W14.8 kmh W 16.1 mph25.9 kmh 29.96 in1014.6 mb - 0.00 in0.0 mm 0.00 in0.0 mm
01:20 AM 46.9°F8.3°C 41.4°F5.2°C 81% 11.5 mph WSW18.5 kmh WSW 18.4 mph29.6 kmh 29.95 in1014.2 mb - 0.00 in0.0 mm 0.00 in0.0 mm
01:10 AM 47.1°F8.4°C 41.6°F5.3°C 81% 11.5 mph WSW18.5 kmh WSW 17.3 mph27.8 kmh 29.94 in1013.9 mb - 0.00 in0.0 mm 0.00 in0.0 mm
01:00 AM 47.1°F8.4°C 41.9°F5.5°C 82% 15.0 mph WSW24.1 kmh WSW 20.7 mph33.3 kmh 29.94 in1013.9 mb - 0.00 in0.0 mm 0.00 in0.0 mm
12:50 AM 47.2°F8.4°C 42.3°F5.7°C 83% 13.8 mph WSW22.2 kmh WSW 23.0 mph37.0 kmh 29.94 in1013.9 mb - 0.00 in0.0 mm 0.00 in0.0 mm
12:40 AM 47.2°F8.4°C 42.6°F5.9°C 84% 12.7 mph SW20.4 kmh SW 13.8 mph22.2 kmh 29.94 in1013.9 mb - 0.00 in0.0 mm 0.00 in0.0 mm
12:30 AM 47.2°F8.4°C 42.9°F6.1°C 85% 16.1 mph WSW25.9 kmh WSW 20.7 mph33.3 kmh 29.94 in1013.9 mb - 0.00 in0.0 mm 0.00 in0.0 mm
12:20 AM 47.0°F8.3°C 42.7°F5.9°C 85% 10.4 mph WSW16.7 kmh WSW 19.6 mph31.5 kmh 29.93 in1013.5 mb - 0.00 in0.0 mm 0.00 in0.0 mm
12:10 AM 46.8°F8.2°C 42.8°F6.0°C 86% 12.7 mph WSW20.4 kmh WSW 20.7 mph33.3 kmh 29.93 in1013.5 mb - 0.00 in0.0 mm 0.00 in0.0 mm
12:00 AM 46.9°F8.3°C 42.9°F6.1°C 86% 15.0 mph WSW24.1 kmh WSW 21.9 mph35.2 kmh 29.92 in1013.2 mb - 0.00 in0.0 mm 0.00 in0.0 mm